VTD1038 USSS-USRR
Flight info
| Callsign | VTD1038 |
|---|---|
| Flight time | 1h 20m |
| Altitude | 33000 |
| Route | DOSUM L992 NAMOL T376 UTORA A925 HMN L870 STELA |
| Aircraft | B738/M-SDE1FGHIJ1RWXYZ/LB1 |
Departure
| Time | 2026-04-23 07:02 |
|---|---|
| Airport | Koltsovo Airport (USSS) |
Arrival
| Time | 2026-04-23 08:23 |
|---|---|
| Airport | Surgut International Airport (USRR) |
| Time | Latitude | Longitude | Altitude | Speed | Heading |
|---|---|---|---|---|---|
| 2026-04-23 06:47 | 56.74803 | 60.81299 | 766 ft | 0 kts | 360° |
| 2026-04-23 06:55 | 56.74805 | 60.81299 | 766 ft | 1 kts | 360° |
| 2026-04-23 06:56 | 56.74809 | 60.81299 | 766 ft | 0 kts | 0° |
| 2026-04-23 06:57 | 56.74810 | 60.81299 | 766 ft | 0 kts | 0° |
| 2026-04-23 06:57 | 56.74822 | 60.81300 | 766 ft | 3 kts | 0° |
| 2026-04-23 06:58 | 56.74843 | 60.81308 | 766 ft | 3 kts | 24° |
| 2026-04-23 06:58 | 56.74858 | 60.81336 | 766 ft | 3 kts | 55° |
| 2026-04-23 06:58 | 56.74865 | 60.81376 | 766 ft | 5 kts | 81° |
| 2026-04-23 06:58 | 56.74867 | 60.81448 | 766 ft | 7 kts | 89° |
| 2026-04-23 06:59 | 56.74867 | 60.81543 | 767 ft | 8 kts | 90° |
| 2026-04-23 06:59 | 56.74866 | 60.81659 | 768 ft | 10 kts | 91° |
| 2026-04-23 06:59 | 56.74865 | 60.81789 | 768 ft | 10 kts | 95° |
| 2026-04-23 06:59 | 56.74842 | 60.81909 | 769 ft | 10 kts | 115° |
| 2026-04-23 07:00 | 56.74812 | 60.82021 | 770 ft | 10 kts | 116° |
| 2026-04-23 07:00 | 56.74781 | 60.82129 | 771 ft | 9 kts | 121° |
| 2026-04-23 07:00 | 56.74731 | 60.82198 | 771 ft | 9 kts | 167° |
| 2026-04-23 07:00 | 56.74667 | 60.82201 | 771 ft | 9 kts | 179° |
| 2026-04-23 07:01 | 56.74606 | 60.82202 | 772 ft | 9 kts | 180° |
| 2026-04-23 07:01 | 56.74546 | 60.82202 | 773 ft | 8 kts | 180° |
| 2026-04-23 07:01 | 56.74492 | 60.82172 | 774 ft | 8 kts | 223° |
| 2026-04-23 07:01 | 56.74476 | 60.82073 | 773 ft | 9 kts | 268° |
| 2026-04-23 07:02 | 56.74476 | 60.81923 | 772 ft | 26 kts | 270° |
| 2026-04-23 07:02 | 56.74477 | 60.81041 | 762 ft | 112 kts | 271° |
| 2026-04-23 07:02 | 56.74483 | 60.79220 | 883 ft | 168 kts | 270° |
| 2026-04-23 07:02 | 56.74492 | 60.77058 | 1882 ft | 174 kts | 267° |
| 2026-04-23 07:03 | 56.74490 | 60.74882 | 2991 ft | 171 kts | 265° |
| 2026-04-23 07:03 | 56.74493 | 60.72679 | 3899 ft | 176 kts | 264° |
| 2026-04-23 07:03 | 56.74497 | 60.70463 | 4923 ft | 178 kts | 264° |
| 2026-04-23 07:03 | 56.74497 | 60.68080 | 5396 ft | 201 kts | 264° |
| 2026-04-23 07:04 | 56.74493 | 60.65362 | 5779 ft | 224 kts | 265° |
| 2026-04-23 07:04 | 56.74495 | 60.62503 | 6607 ft | 226 kts | 265° |
| 2026-04-23 07:04 | 56.74498 | 60.59633 | 7496 ft | 228 kts | 265° |
| 2026-04-23 07:04 | 56.74499 | 60.56730 | 8338 ft | 231 kts | 265° |
| 2026-04-23 07:05 | 56.74359 | 60.53782 | 8915 ft | 243 kts | 249° |
| 2026-04-23 07:05 | 56.73459 | 60.51131 | 9430 ft | 254 kts | 224° |
| 2026-04-23 07:05 | 56.71964 | 60.49380 | 10031 ft | 266 kts | 203° |
| 2026-04-23 07:05 | 56.70048 | 60.48819 | 10220 ft | 298 kts | 180° |
| 2026-04-23 07:06 | 56.67956 | 60.49839 | 10433 ft | 329 kts | 158° |
| 2026-04-23 07:06 | 56.66091 | 60.52433 | 10889 ft | 352 kts | 136° |
| 2026-04-23 07:06 | 56.64857 | 60.56358 | 11588 ft | 369 kts | 111° |
| 2026-04-23 07:06 | 56.64648 | 60.61042 | 12391 ft | 382 kts | 84° |
| 2026-04-23 07:07 | 56.65522 | 60.65634 | 13180 ft | 391 kts | 63° |
| 2026-04-23 07:07 | 56.66916 | 60.69900 | 13919 ft | 396 kts | 59° |
| 2026-04-23 07:07 | 56.68354 | 60.74196 | 14629 ft | 401 kts | 61° |
| 2026-04-23 07:07 | 56.69699 | 60.78652 | 15392 ft | 404 kts | 64° |
| 2026-04-23 07:08 | 56.70933 | 60.83254 | 16124 ft | 408 kts | 67° |
| 2026-04-23 07:08 | 56.72109 | 60.87965 | 16855 ft | 412 kts | 68° |
| 2026-04-23 07:08 | 56.73280 | 60.92747 | 17606 ft | 417 kts | 67° |
| 2026-04-23 07:08 | 56.74862 | 60.97207 | 18223 ft | 426 kts | 46° |
| 2026-04-23 07:09 | 56.77211 | 61.00459 | 18854 ft | 427 kts | 27° |
| 2026-04-23 07:09 | 56.79843 | 61.02985 | 19479 ft | 431 kts | 26° |
| 2026-04-23 07:09 | 56.82514 | 61.05516 | 20028 ft | 436 kts | 26° |
| 2026-04-23 07:09 | 56.85206 | 61.08097 | 20587 ft | 441 kts | 26° |
| 2026-04-23 07:10 | 56.87927 | 61.10748 | 21147 ft | 446 kts | 26° |
| 2026-04-23 07:10 | 56.90661 | 61.13439 | 21699 ft | 450 kts | 26° |
| 2026-04-23 07:10 | 56.93430 | 61.16174 | 22252 ft | 455 kts | 26° |
| 2026-04-23 07:10 | 56.96296 | 61.18648 | 22764 ft | 458 kts | 19° |
| 2026-04-23 07:11 | 56.99278 | 61.20691 | 23279 ft | 461 kts | 16° |
| 2026-04-23 07:11 | 57.02324 | 61.22581 | 23742 ft | 463 kts | 15° |
| 2026-04-23 07:11 | 57.05373 | 61.24453 | 24261 ft | 464 kts | 15° |
| 2026-04-23 07:12 | 57.11487 | 61.28357 | 25263 ft | 468 kts | 17° |
| 2026-04-23 07:12 | 57.14549 | 61.30383 | 25722 ft | 470 kts | 17° |
| 2026-04-23 07:12 | 57.17625 | 61.32443 | 26184 ft | 472 kts | 17° |
| 2026-04-23 07:12 | 57.20706 | 61.34517 | 26622 ft | 474 kts | 18° |
| 2026-04-23 07:13 | 57.23808 | 61.36605 | 27055 ft | 476 kts | 18° |
| 2026-04-23 07:13 | 57.26920 | 61.38699 | 27485 ft | 478 kts | 18° |
| 2026-04-23 07:13 | 57.30002 | 61.40993 | 27875 ft | 482 kts | 25° |
| 2026-04-23 07:13 | 57.32898 | 61.44106 | 28351 ft | 483 kts | 31° |
| 2026-04-23 07:14 | 57.35716 | 61.47449 | 28946 ft | 480 kts | 32° |
| 2026-04-23 07:14 | 57.38511 | 61.50786 | 29587 ft | 477 kts | 31° |
| 2026-04-23 07:14 | 57.41298 | 61.54052 | 30127 ft | 474 kts | 31° |
| 2026-04-23 07:14 | 57.44093 | 61.57262 | 30506 ft | 474 kts | 30° |
| 2026-04-23 07:15 | 57.46902 | 61.60458 | 30847 ft | 475 kts | 30° |
| 2026-04-23 07:15 | 57.49724 | 61.63667 | 31179 ft | 477 kts | 30° |
| 2026-04-23 07:15 | 57.52547 | 61.66884 | 31497 ft | 478 kts | 30° |
| 2026-04-23 07:15 | 57.55373 | 61.70115 | 31864 ft | 478 kts | 30° |
| 2026-04-23 07:16 | 57.58200 | 61.73351 | 32281 ft | 477 kts | 30° |
| 2026-04-23 07:16 | 57.61018 | 61.76585 | 32666 ft | 477 kts | 31° |
| 2026-04-23 07:16 | 57.63804 | 61.79989 | 32686 ft | 483 kts | 36° |
| 2026-04-23 07:17 | 57.68724 | 61.88493 | 32707 ft | 481 kts | 45° |
| 2026-04-23 07:17 | 57.73415 | 61.97253 | 32709 ft | 476 kts | 45° |
| 2026-04-23 07:18 | 57.78112 | 62.05993 | 32718 ft | 478 kts | 44° |
| 2026-04-23 07:18 | 57.82842 | 62.14742 | 32719 ft | 479 kts | 44° |
| 2026-04-23 07:19 | 57.87585 | 62.23513 | 32713 ft | 480 kts | 44° |
| 2026-04-23 07:19 | 57.92333 | 62.32323 | 32713 ft | 481 kts | 44° |
| 2026-04-23 07:20 | 57.97079 | 62.41169 | 32716 ft | 481 kts | 44° |
| 2026-04-23 07:20 | 58.01820 | 62.50040 | 32723 ft | 481 kts | 44° |
| 2026-04-23 07:21 | 58.06545 | 62.58919 | 32717 ft | 480 kts | 44° |
| 2026-04-23 07:21 | 58.11261 | 62.67817 | 32726 ft | 480 kts | 44° |
| 2026-04-23 07:22 | 58.15965 | 62.76726 | 32724 ft | 479 kts | 45° |
| 2026-04-23 07:22 | 58.20654 | 62.85642 | 32721 ft | 479 kts | 45° |
| 2026-04-23 07:23 | 58.25332 | 62.94571 | 32722 ft | 478 kts | 45° |
| 2026-04-23 07:23 | 58.30010 | 63.03538 | 32726 ft | 478 kts | 45° |
| 2026-04-23 07:24 | 58.34675 | 63.12514 | 32727 ft | 478 kts | 45° |
| 2026-04-23 07:24 | 58.39333 | 63.21513 | 32726 ft | 478 kts | 45° |
| 2026-04-23 07:25 | 58.43993 | 63.30552 | 32726 ft | 479 kts | 45° |
| 2026-04-23 07:25 | 58.48645 | 63.39612 | 32723 ft | 479 kts | 45° |
| 2026-04-23 07:26 | 58.53299 | 63.48711 | 32724 ft | 479 kts | 45° |
| 2026-04-23 07:26 | 58.57945 | 63.57835 | 32719 ft | 480 kts | 45° |
| 2026-04-23 07:27 | 58.62589 | 63.66990 | 32720 ft | 480 kts | 45° |
| 2026-04-23 07:27 | 58.67229 | 63.76173 | 32719 ft | 480 kts | 45° |
| 2026-04-23 07:28 | 58.71862 | 63.85378 | 32718 ft | 480 kts | 45° |
| 2026-04-23 07:28 | 58.76489 | 63.94599 | 32714 ft | 480 kts | 45° |
| 2026-04-23 07:29 | 58.81110 | 64.03841 | 32719 ft | 479 kts | 45° |
| 2026-04-23 07:29 | 58.85722 | 64.13104 | 32718 ft | 479 kts | 45° |
| 2026-04-23 07:30 | 58.90324 | 64.22387 | 32714 ft | 479 kts | 45° |
| 2026-04-23 07:30 | 58.94918 | 64.31690 | 32714 ft | 479 kts | 45° |
| 2026-04-23 07:31 | 58.99507 | 64.41024 | 32717 ft | 479 kts | 45° |
| 2026-04-23 07:31 | 59.04085 | 64.50373 | 32711 ft | 479 kts | 45° |
| 2026-04-23 07:32 | 59.08655 | 64.59745 | 32714 ft | 479 kts | 45° |
| 2026-04-23 07:32 | 59.13222 | 64.69150 | 32711 ft | 479 kts | 46° |
| 2026-04-23 07:33 | 59.17781 | 64.78576 | 32712 ft | 479 kts | 46° |
| 2026-04-23 07:33 | 59.22331 | 64.88024 | 32712 ft | 479 kts | 46° |
| 2026-04-23 07:34 | 59.26881 | 64.97512 | 32712 ft | 479 kts | 46° |
| 2026-04-23 07:34 | 59.31424 | 65.07025 | 32711 ft | 479 kts | 46° |
| 2026-04-23 07:35 | 59.35959 | 65.16561 | 32709 ft | 480 kts | 46° |
| 2026-04-23 07:35 | 59.40491 | 65.26131 | 32709 ft | 480 kts | 46° |
| 2026-04-23 07:36 | 59.45017 | 65.35725 | 32700 ft | 480 kts | 46° |
| 2026-04-23 07:36 | 59.49535 | 65.45354 | 32705 ft | 480 kts | 46° |
| 2026-04-23 07:37 | 59.54044 | 65.55008 | 32702 ft | 480 kts | 46° |
| 2026-04-23 07:37 | 59.58553 | 65.64700 | 32701 ft | 480 kts | 46° |
| 2026-04-23 07:38 | 59.63050 | 65.74410 | 32705 ft | 480 kts | 46° |
| 2026-04-23 07:38 | 59.67542 | 65.84148 | 32706 ft | 480 kts | 47° |
| 2026-04-23 07:39 | 59.72030 | 65.93922 | 32693 ft | 480 kts | 47° |
| 2026-04-23 07:39 | 59.76436 | 66.03843 | 32696 ft | 480 kts | 48° |
| 2026-04-23 07:40 | 59.80796 | 66.13849 | 32700 ft | 480 kts | 48° |
| 2026-04-23 07:40 | 59.85160 | 66.23873 | 32697 ft | 480 kts | 48° |
| 2026-04-23 07:41 | 59.89524 | 66.33910 | 32700 ft | 480 kts | 48° |
| 2026-04-23 07:41 | 59.93878 | 66.43964 | 32700 ft | 480 kts | 49° |
| 2026-04-23 07:42 | 59.98227 | 66.54049 | 32693 ft | 480 kts | 49° |
| 2026-04-23 07:42 | 60.02572 | 66.64167 | 32699 ft | 480 kts | 49° |
| 2026-04-23 07:43 | 60.06901 | 66.74312 | 32697 ft | 481 kts | 49° |
| 2026-04-23 07:43 | 60.11224 | 66.84498 | 32699 ft | 481 kts | 49° |
| 2026-04-23 07:44 | 60.15541 | 66.94713 | 32698 ft | 481 kts | 49° |
| 2026-04-23 07:44 | 60.19852 | 67.04958 | 32689 ft | 481 kts | 49° |
| 2026-04-23 07:45 | 60.24153 | 67.15225 | 32690 ft | 481 kts | 49° |
| 2026-04-23 07:45 | 60.28451 | 67.25531 | 32688 ft | 481 kts | 50° |
| 2026-04-23 07:46 | 60.32744 | 67.35870 | 32680 ft | 482 kts | 50° |
| 2026-04-23 07:46 | 60.37027 | 67.46232 | 32680 ft | 482 kts | 50° |
| 2026-04-23 07:47 | 60.41308 | 67.56637 | 32676 ft | 482 kts | 50° |
| 2026-04-23 07:47 | 60.45581 | 67.67069 | 32676 ft | 483 kts | 50° |
| 2026-04-23 07:48 | 60.49851 | 67.77541 | 32671 ft | 483 kts | 50° |
| 2026-04-23 07:48 | 60.54114 | 67.88044 | 32670 ft | 483 kts | 50° |
| 2026-04-23 07:49 | 60.58370 | 67.98578 | 32668 ft | 483 kts | 50° |
| 2026-04-23 07:49 | 60.62623 | 68.09152 | 32660 ft | 484 kts | 50° |
| 2026-04-23 07:50 | 60.66866 | 68.19751 | 32659 ft | 484 kts | 50° |
| 2026-04-23 07:50 | 60.71103 | 68.30384 | 32652 ft | 484 kts | 51° |
| 2026-04-23 07:51 | 60.75337 | 68.41054 | 32651 ft | 484 kts | 51° |
| 2026-04-23 07:51 | 60.79561 | 68.51740 | 32649 ft | 484 kts | 51° |
| 2026-04-23 07:52 | 60.83780 | 68.62454 | 32647 ft | 484 kts | 51° |
| 2026-04-23 07:52 | 60.87988 | 68.73194 | 32642 ft | 484 kts | 51° |
| 2026-04-23 07:53 | 60.92194 | 68.83979 | 32639 ft | 484 kts | 51° |
| 2026-04-23 07:53 | 60.96392 | 68.94794 | 32634 ft | 485 kts | 51° |
| 2026-04-23 07:54 | 61.00575 | 69.05634 | 32637 ft | 485 kts | 53° |
| 2026-04-23 07:54 | 61.03794 | 69.17745 | 32643 ft | 483 kts | 71° |
| 2026-04-23 07:55 | 61.05445 | 69.31108 | 32636 ft | 481 kts | 80° |
| 2026-04-23 07:55 | 61.06855 | 69.44597 | 32638 ft | 482 kts | 79° |
| 2026-04-23 07:56 | 61.08055 | 69.55844 | 32635 ft | 483 kts | 79° |
| 2026-04-23 07:56 | 61.09758 | 69.71610 | 32648 ft | 483 kts | 79° |
| 2026-04-23 07:56 | 61.10477 | 69.78292 | 32627 ft | 469 kts | 79° |
| 2026-04-23 07:57 | 61.11170 | 69.84752 | 32626 ft | 454 kts | 79° |
| 2026-04-23 07:57 | 61.11836 | 69.91004 | 32632 ft | 440 kts | 80° |
| 2026-04-23 07:57 | 61.12479 | 69.97080 | 32628 ft | 426 kts | 80° |
| 2026-04-23 07:57 | 61.13099 | 70.02965 | 32630 ft | 413 kts | 80° |
| 2026-04-23 07:58 | 61.13684 | 70.08688 | 32633 ft | 401 kts | 81° |
| 2026-04-23 07:58 | 61.14232 | 70.14237 | 32634 ft | 389 kts | 81° |
| 2026-04-23 07:58 | 61.14757 | 70.19628 | 32628 ft | 377 kts | 82° |
| 2026-04-23 07:59 | 61.15762 | 70.30041 | 32666 ft | 371 kts | 82° |
| 2026-04-23 07:59 | 61.16269 | 70.35345 | 32683 ft | 382 kts | 82° |
| 2026-04-23 07:59 | 61.16790 | 70.40802 | 32682 ft | 391 kts | 82° |
| 2026-04-23 08:00 | 61.17843 | 70.51806 | 32646 ft | 386 kts | 82° |
| 2026-04-23 08:00 | 61.18868 | 70.62577 | 32655 ft | 382 kts | 82° |
| 2026-04-23 08:01 | 61.19884 | 70.73396 | 32677 ft | 384 kts | 82° |
| 2026-04-23 08:01 | 61.20901 | 70.84297 | 32680 ft | 387 kts | 82° |
| 2026-04-23 08:02 | 61.21907 | 70.95250 | 32663 ft | 388 kts | 83° |
| 2026-04-23 08:02 | 61.22829 | 71.06235 | 32664 ft | 387 kts | 83° |
| 2026-04-23 08:03 | 61.23715 | 71.17100 | 32281 ft | 377 kts | 83° |
| 2026-04-23 08:03 | 61.24148 | 71.22423 | 31821 ft | 374 kts | 84° |
| 2026-04-23 08:03 | 61.24579 | 71.27726 | 31325 ft | 373 kts | 84° |
| 2026-04-23 08:03 | 61.25007 | 71.33030 | 30796 ft | 373 kts | 84° |
| 2026-04-23 08:04 | 61.25437 | 71.38381 | 29945 ft | 383 kts | 84° |
| 2026-04-23 08:04 | 61.25882 | 71.43996 | 28449 ft | 405 kts | 84° |
| 2026-04-23 08:04 | 61.26348 | 71.49867 | 26976 ft | 422 kts | 84° |
| 2026-04-23 08:04 | 61.26832 | 71.55960 | 25681 ft | 432 kts | 83° |
| 2026-04-23 08:05 | 61.27323 | 71.62116 | 24778 ft | 431 kts | 83° |
| 2026-04-23 08:05 | 61.27806 | 71.68204 | 24088 ft | 424 kts | 84° |
| 2026-04-23 08:05 | 61.28274 | 71.74180 | 23430 ft | 416 kts | 84° |
| 2026-04-23 08:05 | 61.28766 | 71.80062 | 22640 ft | 411 kts | 82° |
| 2026-04-23 08:06 | 61.29312 | 71.85855 | 21777 ft | 407 kts | 81° |
| 2026-04-23 08:06 | 61.29869 | 71.91589 | 20954 ft | 404 kts | 81° |
| 2026-04-23 08:06 | 61.30412 | 71.97266 | 20156 ft | 399 kts | 82° |
| 2026-04-23 08:06 | 61.30937 | 72.02894 | 19399 ft | 395 kts | 82° |
| 2026-04-23 08:07 | 61.31451 | 72.08471 | 18664 ft | 391 kts | 82° |
| 2026-04-23 08:07 | 61.31986 | 72.13980 | 17926 ft | 388 kts | 81° |
| 2026-04-23 08:07 | 61.32536 | 72.19437 | 17124 ft | 384 kts | 81° |
| 2026-04-23 08:07 | 61.33086 | 72.24829 | 16393 ft | 379 kts | 81° |
| 2026-04-23 08:08 | 61.33628 | 72.30159 | 15665 ft | 374 kts | 80° |
| 2026-04-23 08:08 | 61.34159 | 72.35425 | 14952 ft | 371 kts | 80° |
| 2026-04-23 08:08 | 61.34681 | 72.40648 | 14250 ft | 367 kts | 80° |
| 2026-04-23 08:08 | 61.35194 | 72.45806 | 13684 ft | 360 kts | 80° |
| 2026-04-23 08:09 | 61.35687 | 72.50784 | 13488 ft | 342 kts | 81° |
| 2026-04-23 08:09 | 61.36154 | 72.55511 | 13244 ft | 327 kts | 81° |
| 2026-04-23 08:09 | 61.36602 | 72.60078 | 12879 ft | 318 kts | 81° |
| 2026-04-23 08:09 | 61.37038 | 72.64550 | 12439 ft | 313 kts | 81° |
| 2026-04-23 08:10 | 61.37465 | 72.68959 | 11960 ft | 310 kts | 81° |
| 2026-04-23 08:10 | 61.37888 | 72.73330 | 11470 ft | 306 kts | 81° |
| 2026-04-23 08:10 | 61.38715 | 72.81928 | 10568 ft | 300 kts | 82° |
| 2026-04-23 08:11 | 61.39120 | 72.86161 | 10119 ft | 296 kts | 82° |
| 2026-04-23 08:11 | 61.39519 | 72.90346 | 9681 ft | 293 kts | 82° |
| 2026-04-23 08:11 | 61.39912 | 72.94483 | 9233 ft | 290 kts | 82° |
| 2026-04-23 08:11 | 61.40300 | 72.98577 | 8744 ft | 286 kts | 82° |
| 2026-04-23 08:12 | 61.40682 | 73.02624 | 8290 ft | 283 kts | 81° |
| 2026-04-23 08:12 | 61.41058 | 73.06632 | 7834 ft | 280 kts | 81° |
| 2026-04-23 08:12 | 61.41431 | 73.10599 | 7392 ft | 277 kts | 81° |
| 2026-04-23 08:12 | 61.41797 | 73.14516 | 6988 ft | 274 kts | 81° |
| 2026-04-23 08:13 | 61.42159 | 73.18402 | 6558 ft | 272 kts | 81° |
| 2026-04-23 08:13 | 61.42516 | 73.22248 | 6156 ft | 269 kts | 81° |
| 2026-04-23 08:13 | 61.42869 | 73.26052 | 5730 ft | 266 kts | 80° |
| 2026-04-23 08:13 | 61.43217 | 73.29832 | 5226 ft | 265 kts | 80° |
| 2026-04-23 08:14 | 61.43564 | 73.33600 | 4766 ft | 264 kts | 80° |
| 2026-04-23 08:14 | 61.43907 | 73.37342 | 4276 ft | 263 kts | 79° |
| 2026-04-23 08:14 | 61.44248 | 73.41068 | 3837 ft | 260 kts | 80° |
| 2026-04-23 08:14 | 61.44585 | 73.44766 | 3424 ft | 258 kts | 80° |
| 2026-04-23 08:15 | 61.44922 | 73.48467 | 3130 ft | 260 kts | 80° |
| 2026-04-23 08:15 | 61.45251 | 73.52086 | 3047 ft | 251 kts | 80° |
| 2026-04-23 08:15 | 61.45572 | 73.55641 | 2845 ft | 247 kts | 80° |
| 2026-04-23 08:15 | 61.45888 | 73.59158 | 2587 ft | 247 kts | 80° |
| 2026-04-23 08:16 | 61.46199 | 73.62666 | 2320 ft | 246 kts | 82° |
| 2026-04-23 08:16 | 61.46080 | 73.66202 | 2206 ft | 248 kts | 112° |
| 2026-04-23 08:16 | 61.45082 | 73.69074 | 2146 ft | 245 kts | 138° |
| 2026-04-23 08:16 | 61.43878 | 73.71579 | 2140 ft | 245 kts | 136° |
| 2026-04-23 08:17 | 61.42709 | 73.74119 | 2150 ft | 238 kts | 135° |
| 2026-04-23 08:17 | 61.41519 | 73.76309 | 2132 ft | 221 kts | 155° |
| 2026-04-23 08:17 | 61.40107 | 73.76876 | 2118 ft | 198 kts | 188° |
| 2026-04-23 08:17 | 61.38823 | 73.76115 | 2000 ft | 189 kts | 210° |
| 2026-04-23 08:18 | 61.37806 | 73.74499 | 1885 ft | 181 kts | 223° |
| 2026-04-23 08:18 | 61.36903 | 73.72707 | 1775 ft | 176 kts | 224° |
| 2026-04-23 08:18 | 61.36050 | 73.70987 | 1632 ft | 165 kts | 224° |
| 2026-04-23 08:18 | 61.35245 | 73.69370 | 1518 ft | 158 kts | 223° |
| 2026-04-23 08:19 | 61.34273 | 73.68472 | 1448 ft | 156 kts | 176° |
| 2026-04-23 08:19 | 61.33247 | 73.69182 | 1464 ft | 161 kts | 168° |
| 2026-04-23 08:19 | 61.32173 | 73.68970 | 1478 ft | 160 kts | 209° |
| 2026-04-23 08:19 | 61.31489 | 73.67268 | 1478 ft | 156 kts | 254° |
| 2026-04-23 08:20 | 61.31623 | 73.65079 | 1481 ft | 158 kts | 296° |
| 2026-04-23 08:20 | 61.32215 | 73.63170 | 1515 ft | 159 kts | 301° |
| 2026-04-23 08:20 | 61.32829 | 73.61288 | 1479 ft | 153 kts | 301° |
| 2026-04-23 08:20 | 61.33410 | 73.59464 | 1473 ft | 150 kts | 299° |
| 2026-04-23 08:21 | 61.33956 | 73.57623 | 1502 ft | 147 kts | 299° |
| 2026-04-23 08:21 | 61.34394 | 73.55759 | 1488 ft | 142 kts | 285° |
| 2026-04-23 08:21 | 61.34548 | 73.53743 | 1337 ft | 142 kts | 269° |
| 2026-04-23 08:21 | 61.34529 | 73.51687 | 1151 ft | 143 kts | 265° |
| 2026-04-23 08:22 | 61.34472 | 73.49644 | 899 ft | 141 kts | 264° |
| 2026-04-23 08:22 | 61.34444 | 73.47629 | 684 ft | 137 kts | 268° |
| 2026-04-23 08:22 | 61.34437 | 73.45645 | 530 ft | 137 kts | 265° |
| 2026-04-23 08:22 | 61.34407 | 73.43667 | 364 ft | 137 kts | 266° |
| 2026-04-23 08:23 | 61.34390 | 73.41679 | 216 ft | 136 kts | 267° |
| 2026-04-23 08:23 | 61.34388 | 73.40028 | 210 ft | 66 kts | 270° |
| 2026-04-23 08:23 | 61.34384 | 73.39310 | 211 ft | 27 kts | 269° |
| 2026-04-23 08:23 | 61.34375 | 73.38958 | 195 ft | 19 kts | 243° |
| 2026-04-23 08:24 | 61.34289 | 73.38901 | 210 ft | 13 kts | 179° |
| 2026-04-23 08:24 | 61.34203 | 73.38908 | 208 ft | 12 kts | 163° |
| 2026-04-23 08:24 | 61.34172 | 73.39058 | 210 ft | 12 kts | 90° |
| 2026-04-23 08:24 | 61.34175 | 73.39230 | 211 ft | 12 kts | 88° |
| 2026-04-23 08:25 | 61.34177 | 73.39398 | 207 ft | 11 kts | 89° |
| 2026-04-23 08:25 | 61.34150 | 73.39537 | 212 ft | 11 kts | 156° |
| 2026-04-23 08:25 | 61.34079 | 73.39568 | 215 ft | 8 kts | 139° |
| 2026-04-23 08:25 | 61.34079 | 73.39624 | 215 ft | 3 kts | 45° |
| 2026-04-23 08:26 | 61.34101 | 73.39639 | 213 ft | 3 kts | 8° |
| 2026-04-23 08:26 | 61.34124 | 73.39640 | 211 ft | 3 kts | 359° |
| 2026-04-23 08:26 | 61.34125 | 73.39640 | 211 ft | 0 kts | 359° |